sensor_id;sensor_type;location;lat;lon;timestamp;temperature;humidity
21799;DHT22;24973;47.178;15.316;2023-03-23T19:13:03;12.80;92.30
21799;DHT22;24973;47.178;15.316;2023-03-23T19:15:52;12.60;92.50
21799;DHT22;24973;47.178;15.316;2023-03-23T19:18:40;12.60;92.90
21799;DHT22;24973;47.178;15.316;2023-03-23T19:21:31;12.50;93.50
21799;DHT22;24973;47.178;15.316;2023-03-23T19:24:20;12.60;93.70
21799;DHT22;24973;47.178;15.316;2023-03-23T19:27:09;12.60;93.80
21799;DHT22;24973;47.178;15.316;2023-03-23T19:29:57;12.60;94.00
21799;DHT22;24973;47.178;15.316;2023-03-23T19:32:46;12.60;94.30
21799;DHT22;24973;47.178;15.316;2023-03-23T19:35:35;12.70;94.20
21799;DHT22;24973;47.178;15.316;2023-03-23T19:38:26;12.70;94.00
21799;DHT22;24973;47.178;15.316;2023-03-23T19:41:15;12.60;94.10
21799;DHT22;24973;47.178;15.316;2023-03-23T19:44:05;12.50;94.60
21799;DHT22;24973;47.178;15.316;2023-03-23T19:46:54;12.30;95.10
21799;DHT22;24973;47.178;15.316;2023-03-23T19:49:43;12.10;95.70
21799;DHT22;24973;47.178;15.316;2023-03-23T19:52:32;11.90;96.50
21799;DHT22;24973;47.178;15.316;2023-03-23T19:55:22;11.80;96.80
21799;DHT22;24973;47.178;15.316;2023-03-23T19:58:11;11.60;97.40
21799;DHT22;24973;47.178;15.316;2023-03-23T20:01:00;11.50;97.60
21799;DHT22;24973;47.178;15.316;2023-03-23T20:03:49;11.40;98.20
21799;DHT22;24973;47.178;15.316;2023-03-23T20:06:38;11.30;98.80
21799;DHT22;24973;47.178;15.316;2023-03-23T20:09:29;11.20;99.50
21799;DHT22;24973;47.178;15.316;2023-03-23T20:12:19;11.10;99.90
21799;DHT22;24973;47.178;15.316;2023-03-23T20:15:08;11.00;99.90
21799;DHT22;24973;47.178;15.316;2023-03-23T20:17:57;10.90;99.90
21799;DHT22;24973;47.178;15.316;2023-03-23T20:20:46;11.00;99.90
21799;DHT22;24973;47.178;15.316;2023-03-23T20:23:37;11.10;99.90
21799;DHT22;24973;47.178;15.316;2023-03-23T20:26:29;11.00;99.90
21799;DHT22;24973;47.178;15.316;2023-03-23T20:29:20;10.90;99.90
21799;DHT22;24973;47.178;15.316;2023-03-23T20:32:09;10.70;99.90
21799;DHT22;24973;47.178;15.316;2023-03-23T20:34:59;10.70;99.90
21799;DHT22;24973;47.178;15.316;2023-03-23T20:37:52;10.60;99.90
21799;DHT22;24973;47.178;15.316;2023-03-23T20:40:41;10.50;99.90
21799;DHT22;24973;47.178;15.316;2023-03-23T20:43:32;10.50;99.90
21799;DHT22;24973;47.178;15.316;2023-03-23T20:46:23;10.60;99.90
21799;DHT22;24973;47.178;15.316;2023-03-23T20:49:12;10.70;99.90
21799;DHT22;24973;47.178;15.316;2023-03-23T20:52:03;10.80;99.90
21799;DHT22;24973;47.178;15.316;2023-03-23T20:54:53;10.90;99.90
21799;DHT22;24973;47.178;15.316;2023-03-23T20:57:42;11.00;99.90
21799;DHT22;24973;47.178;15.316;2023-03-23T21:00:31;10.90;99.90
21799;DHT22;24973;47.178;15.316;2023-03-23T21:03:21;10.80;99.90
21799;DHT22;24973;47.178;15.316;2023-03-23T21:06:11;10.80;99.90
21799;DHT22;24973;47.178;15.316;2023-03-23T21:09:01;10.70;99.90
21799;DHT22;24973;47.178;15.316;2023-03-23T21:11:50;10.50;99.90
21799;DHT22;24973;47.178;15.316;2023-03-23T21:14:40;10.30;99.90
21799;DHT22;24973;47.178;15.316;2023-03-23T21:17:31;10.20;99.90
21799;DHT22;24973;47.178;15.316;2023-03-23T21:20:21;10.10;99.90
21799;DHT22;24973;47.178;15.316;2023-03-23T21:23:11;10.00;99.90
21799;DHT22;24973;47.178;15.316;2023-03-23T21:26:02;9.90;99.90
21799;DHT22;24973;47.178;15.316;2023-03-23T21:28:54;9.70;99.90
21799;DHT22;24973;47.178;15.316;2023-03-23T21:31:46;9.70;99.90
21799;DHT22;24973;47.178;15.316;2023-03-23T21:34:36;9.70;99.90
21799;DHT22;24973;47.178;15.316;2023-03-23T21:37:26;9.80;99.90
21799;DHT22;24973;47.178;15.316;2023-03-23T21:40:16;9.80;99.90
21799;DHT22;24973;47.178;15.316;2023-03-23T21:43:05;9.70;99.90
21799;DHT22;24973;47.178;15.316;2023-03-23T21:45:59;9.40;99.90
21799;DHT22;24973;47.178;15.316;2023-03-23T21:48:52;9.30;99.90
21799;DHT22;24973;47.178;15.316;2023-03-23T21:51:41;9.40;99.90
21799;DHT22;24973;47.178;15.316;2023-03-23T21:54:31;9.40;99.90
21799;DHT22;24973;47.178;15.316;2023-03-23T21:57:20;9.40;99.90
21799;DHT22;24973;47.178;15.316;2023-03-23T22:00:10;9.20;99.90
21799;DHT22;24973;47.178;15.316;2023-03-23T22:03:01;9.00;99.90
21799;DHT22;24973;47.178;15.316;2023-03-23T22:05:52;9.00;99.90
21799;DHT22;24973;47.178;15.316;2023-03-23T22:08:42;8.90;99.90
21799;DHT22;24973;47.178;15.316;2023-03-23T22:11:33;8.90;99.90
21799;DHT22;24973;47.178;15.316;2023-03-23T22:14:24;8.90;99.90
21799;DHT22;24973;47.178;15.316;2023-03-23T22:17:13;8.90;99.90
21799;DHT22;24973;47.178;15.316;2023-03-23T22:20:03;8.90;99.90
21799;DHT22;24973;47.178;15.316;2023-03-23T22:22:52;8.90;99.90
21799;DHT22;24973;47.178;15.316;2023-03-23T22:25:41;8.90;99.90
21799;DHT22;24973;47.178;15.316;2023-03-23T22:28:32;8.80;99.90
21799;DHT22;24973;47.178;15.316;2023-03-23T22:31:24;8.80;99.90
21799;DHT22;24973;47.178;15.316;2023-03-23T22:34:14;8.70;99.90
21799;DHT22;24973;47.178;15.316;2023-03-23T22:37:03;8.70;99.90
21799;DHT22;24973;47.178;15.316;2023-03-23T22:39:52;8.60;99.90
21799;DHT22;24973;47.178;15.316;2023-03-23T22:42:41;8.50;99.90
21799;DHT22;24973;47.178;15.316;2023-03-23T22:45:31;8.50;99.90
21799;DHT22;24973;47.178;15.316;2023-03-23T22:48:22;8.50;99.90
21799;DHT22;24973;47.178;15.316;2023-03-23T22:51:14;8.40;99.90
21799;DHT22;24973;47.178;15.316;2023-03-23T22:54:04;8.40;99.90
21799;DHT22;24973;47.178;15.316;2023-03-23T22:56:53;8.40;99.90
21799;DHT22;24973;47.178;15.316;2023-03-23T22:59:42;8.50;99.90
21799;DHT22;24973;47.178;15.316;2023-03-23T23:02:35;8.50;99.90
21799;DHT22;24973;47.178;15.316;2023-03-23T23:05:24;8.60;99.90
21799;DHT22;24973;47.178;15.316;2023-03-23T23:08:13;8.60;99.90
21799;DHT22;24973;47.178;15.316;2023-03-23T23:11:04;8.60;99.90
21799;DHT22;24973;47.178;15.316;2023-03-23T23:13:57;8.60;99.90
21799;DHT22;24973;47.178;15.316;2023-03-23T23:16:45;8.50;99.90
21799;DHT22;24973;47.178;15.316;2023-03-23T23:19:36;8.50;99.90
21799;DHT22;24973;47.178;15.316;2023-03-23T23:22:25;8.50;99.90
21799;DHT22;24973;47.178;15.316;2023-03-23T23:25:14;8.50;99.90
21799;DHT22;24973;47.178;15.316;2023-03-23T23:28:04;8.40;99.90
21799;DHT22;24973;47.178;15.316;2023-03-23T23:30:54;8.40;99.90
21799;DHT22;24973;47.178;15.316;2023-03-23T23:33:43;8.40;99.90
21799;DHT22;24973;47.178;15.316;2023-03-23T23:36:33;8.40;99.90
21799;DHT22;24973;47.178;15.316;2023-03-23T23:39:23;8.30;99.90
21799;DHT22;24973;47.178;15.316;2023-03-23T23:42:12;8.30;99.90
21799;DHT22;24973;47.178;15.316;2023-03-23T23:45:02;8.40;99.90
21799;DHT22;24973;47.178;15.316;2023-03-23T23:47:51;8.40;99.90
21799;DHT22;24973;47.178;15.316;2023-03-23T23:50:40;8.40;99.90
21799;DHT22;24973;47.178;15.316;2023-03-23T23:53:30;8.40;99.90
21799;DHT22;24973;47.178;15.316;2023-03-23T23:56:20;8.40;99.90
21799;DHT22;24973;47.178;15.316;2023-03-23T23:59:09;8.50;99.90
